createdAt,value
2022-12-19T00:04:02.046Z,75.20
2022-12-19T00:09:09.756Z,69.07
2022-12-19T00:14:11.883Z,62.63
2022-12-19T00:19:13.546Z,66.78
2022-12-19T00:24:20.693Z,64.25
2022-12-19T00:29:23.447Z,73.72
2022-12-19T00:34:26.810Z,68.55
2022-12-19T00:39:28.441Z,58.75
2022-12-19T00:44:30.281Z,58.22
2022-12-19T00:49:33.510Z,66.28
2022-12-19T00:54:35.788Z,63.47
2022-12-19T00:59:37.938Z,63.67
2022-12-19T01:04:41.693Z,62.20
2022-12-19T01:09:47.308Z,63.30
2022-12-19T01:14:52.966Z,65.13
2022-12-19T01:19:54.773Z,67.32
2022-12-19T01:24:56.629Z,65.50
2022-12-19T01:29:58.353Z,60.97
2022-12-19T01:35:00.185Z,57.33
2022-12-19T01:40:01.802Z,54.40
2022-12-19T01:45:13.331Z,61.78
2022-12-19T01:50:23.583Z,56.53
2022-12-19T01:55:27.523Z,60.13
2022-12-19T02:00:29.372Z,61.95
2022-12-19T02:05:32.087Z,57.97
2022-12-19T02:10:34.282Z,52.55
2022-12-19T02:15:52.446Z,50.28
2022-12-19T02:20:57.274Z,54.22
2022-12-19T02:26:13.367Z,53.88
2022-12-19T02:31:35.083Z,48.05
2022-12-19T02:36:41.839Z,55.33
2022-12-19T02:41:51.349Z,51.10
2022-12-19T02:46:58.845Z,53.47
2022-12-19T02:52:33.318Z,48.63
2022-12-19T02:57:39.271Z,52.72
2022-12-19T03:02:51.194Z,52.85
2022-12-19T03:08:09.634Z,56.97
2022-12-19T03:13:23.950Z,59.92
2022-12-19T03:18:26.444Z,56.50
2022-12-19T03:23:30.139Z,54.78
2022-12-19T03:28:54.549Z,50.78
2022-12-19T03:34:01.068Z,54.90
2022-12-19T03:39:05.907Z,57.20
2022-12-19T03:44:12.562Z,52.30
2022-12-19T03:49:14.427Z,58.75
2022-12-19T03:54:21.963Z,53.72
2022-12-19T03:59:29.291Z,49.85
2022-12-19T04:04:36.084Z,53.23
2022-12-19T04:09:40.491Z,56.70
2022-12-19T04:14:42.562Z,57.72
2022-12-19T04:19:53.696Z,55.95
2022-12-19T04:24:57.273Z,57.08
2022-12-19T04:30:01.076Z,63.13
2022-12-19T04:35:02.982Z,62.55
2022-12-19T04:40:06.206Z,65.88
2022-12-19T04:45:08.278Z,69.38
2022-12-19T04:50:10.450Z,61.40
2022-12-19T04:55:12.055Z,70.43
2022-12-19T05:00:14.173Z,64.82
2022-12-19T05:05:16.646Z,63.15
2022-12-19T05:10:18.341Z,59.58
2022-12-19T05:15:20.174Z,62.47
2022-12-19T05:20:21.840Z,63.47
2022-12-19T05:25:23.429Z,61.90
2022-12-19T05:30:25.108Z,58.15
2022-12-19T05:35:27.400Z,67.22
2022-12-19T05:40:29.503Z,60.58
2022-12-19T05:45:31.306Z,59.65
2022-12-19T05:50:32.968Z,62.55
2022-12-19T05:55:44.168Z,63.60
2022-12-19T06:00:45.790Z,66.07
2022-12-19T06:05:47.567Z,65.43
2022-12-19T06:10:49.326Z,72.95
2022-12-19T06:15:56.469Z,73.20
2022-12-19T06:20:59.973Z,69.28
2022-12-19T06:26:05.078Z,74.72
2022-12-19T06:31:07.760Z,75.63
2022-12-19T06:36:21.495Z,77.85
2022-12-19T06:41:42.925Z,76.30
2022-12-19T06:46:44.928Z,74.03
2022-12-19T06:51:46.714Z,71.82
2022-12-19T06:56:48.871Z,64.28
2022-12-19T07:02:30.576Z,67.00
2022-12-19T07:07:32.887Z,63.53
2022-12-19T07:12:35.514Z,58.17
2022-12-19T07:17:37.862Z,69.78
2022-12-19T07:22:40.918Z,66.80
2022-12-19T07:27:42.867Z,61.40
2022-12-19T07:32:44.783Z,63.97
2022-12-19T07:37:46.706Z,64.03
2022-12-19T07:42:49.470Z,71.35
2022-12-19T07:47:51.346Z,66.13
2022-12-19T07:52:52.940Z,63.92
2022-12-19T07:57:55.675Z,65.25
2022-12-19T08:03:00.418Z,63.92
2022-12-19T08:08:02.048Z,60.97
2022-12-19T08:13:03.952Z,57.60
2022-12-19T08:18:06.096Z,54.13
2022-12-19T08:23:07.711Z,56.67
2022-12-19T08:28:09.327Z,55.90
2022-12-19T08:33:11.066Z,56.28
2022-12-19T08:38:13.039Z,51.40
2022-12-19T08:43:14.653Z,57.17
2022-12-19T08:48:17.198Z,58.38
2022-12-19T08:53:25.829Z,55.05
2022-12-19T08:58:30.465Z,49.92
2022-12-19T09:03:44.070Z,55.85
2022-12-19T09:08:54.728Z,58.50
2022-12-19T09:14:02.112Z,59.95
2022-12-19T09:19:03.804Z,57.08
2022-12-19T09:24:08.067Z,52.95
2022-12-19T09:29:19.649Z,59.65
2022-12-19T09:34:22.110Z,60.45
2022-12-19T09:39:25.780Z,60.60
2022-12-19T09:44:27.970Z,54.92
2022-12-19T09:49:36.628Z,54.33
2022-12-19T09:54:51.525Z,60.10
2022-12-19T09:59:57.908Z,51.08
2022-12-19T10:05:53.154Z,56.83
2022-12-19T10:12:38.267Z,61.47
2022-12-19T10:16:31.814Z,52.85
2022-12-19T10:22:16.195Z,63.15
2022-12-19T10:27:19.235Z,56.45
2022-12-19T10:32:54.335Z,62.17
2022-12-19T10:38:16.099Z,58.63
2022-12-19T10:43:30.387Z,62.50
2022-12-19T10:48:34.651Z,61.05
2022-12-19T10:53:36.672Z,60.53
2022-12-19T10:58:43.139Z,58.38
2022-12-19T11:03:52.013Z,62.38
2022-12-19T11:09:17.017Z,56.65
2022-12-19T11:18:20.923Z,56.13
2022-12-19T11:29:17.341Z,64.07
2022-12-19T11:30:46.074Z,57.33
2022-12-19T11:35:55.543Z,61.97
2022-12-19T11:41:00.127Z,65.80
2022-12-19T11:46:26.345Z,60.42
2022-12-19T11:51:56.165Z,60.67
2022-12-19T11:56:57.977Z,66.25
2022-12-19T12:02:32.839Z,65.45
2022-12-19T12:09:33.398Z,65.05
2022-12-19T12:22:42.873Z,63.25
2022-12-19T12:31:11.643Z,57.55
2022-12-19T12:31:51.387Z,64.95
2022-12-19T12:32:05.583Z,65.05
2022-12-19T12:42:41.039Z,61.15
2022-12-19T12:47:44.589Z,61.38
2022-12-19T12:52:50.581Z,56.38
2022-12-19T12:57:52.366Z,55.53
2022-12-19T13:03:10.423Z,55.47
2022-12-19T13:08:24.853Z,57.03
2022-12-19T13:13:48.146Z,54.25
2022-12-19T13:19:19.636Z,57.90
2022-12-19T13:24:23.300Z,55.28
2022-12-19T13:29:30.901Z,58.88
2022-12-19T13:34:37.316Z,42.40
2022-12-19T13:40:32.482Z,55.05
2022-12-19T13:45:36.071Z,56.10
2022-12-19T13:50:41.586Z,59.60
2022-12-19T13:55:43.651Z,63.60
2022-12-19T14:00:50.317Z,60.30
2022-12-19T14:06:17.386Z,58.53
2022-12-19T14:11:41.651Z,64.30
2022-12-19T14:16:45.532Z,67.97
2022-12-19T14:22:07.036Z,60.00
2022-12-19T14:28:24.866Z,54.78
2022-12-19T14:33:40.606Z,57.38
2022-12-19T14:38:54.232Z,57.13
2022-12-19T14:43:58.646Z,57.72
2022-12-19T14:54:14.921Z,64.30
2022-12-19T14:59:47.798Z,53.38
2022-12-19T15:05:06.254Z,52.92
2022-12-19T15:15:45.854Z,56.00
2022-12-19T15:20:48.693Z,58.05
2022-12-19T15:26:08.783Z,53.97
2022-12-19T15:31:35.409Z,55.28
2022-12-19T15:36:37.178Z,51.47
2022-12-19T15:41:38.859Z,55.83
2022-12-19T15:46:46.623Z,51.38
2022-12-19T15:51:50.489Z,54.15
2022-12-19T15:56:54.874Z,57.00
2022-12-19T16:01:57.550Z,52.45
2022-12-19T16:06:59.268Z,55.10
2022-12-19T16:12:00.900Z,55.20
2022-12-19T16:17:02.589Z,58.92
2022-12-19T16:22:22.446Z,61.15
2022-12-19T16:27:28.311Z,56.40
2022-12-19T16:32:30.209Z,60.53
2022-12-19T16:37:32.587Z,65.88
2022-12-19T16:42:34.309Z,63.72
2022-12-19T16:47:36.010Z,64.75
2022-12-19T16:52:42.564Z,62.00
2022-12-19T16:57:46.692Z,65.05
2022-12-19T17:02:54.119Z,61.13
2022-12-19T17:07:56.592Z,72.00
2022-12-19T17:13:02.125Z,69.15
2022-12-19T17:18:11.700Z,62.95
2022-12-19T17:23:16.085Z,72.50
2022-12-19T17:28:18.164Z,60.67
2022-12-19T17:33:28.999Z,66.63
2022-12-19T17:38:30.795Z,61.83
2022-12-19T17:43:32.450Z,70.35
2022-12-19T17:48:34.228Z,63.30
2022-12-19T17:53:35.895Z,61.55
2022-12-19T17:58:37.542Z,69.13
2022-12-19T18:03:39.799Z,65.05
2022-12-19T18:08:41.619Z,66.78
2022-12-19T18:13:43.207Z,75.82
2022-12-19T18:18:45.150Z,73.97
2022-12-19T18:23:46.812Z,68.15
2022-12-19T18:28:48.991Z,66.35
2022-12-19T18:33:54.717Z,73.70
2022-12-19T18:38:56.978Z,68.10
2022-12-19T18:43:58.637Z,68.57
2022-12-19T18:49:00.424Z,73.88
2022-12-19T18:54:20.815Z,66.80
2022-12-19T18:59:22.465Z,71.60
2022-12-19T19:04:24.075Z,70.15
2022-12-19T19:09:25.714Z,70.55
2022-12-19T19:19:46.215Z,75.15
2022-12-19T19:24:47.793Z,73.05
2022-12-19T19:29:49.406Z,73.43
2022-12-19T19:34:51.614Z,69.80
2022-12-19T19:39:53.223Z,76.22
2022-12-19T19:44:55.170Z,76.25
2022-12-19T19:49:56.869Z,79.00
2022-12-19T19:54:58.778Z,80.70
2022-12-19T20:00:00.437Z,72.85
2022-12-19T20:05:02.090Z,74.40
2022-12-19T20:10:07.664Z,82.22
2022-12-19T20:15:09.808Z,87.10
2022-12-19T20:20:12.246Z,72.63
2022-12-19T20:25:14.414Z,80.25
2022-12-19T20:30:16.253Z,87.30
2022-12-19T20:35:17.921Z,75.80
2022-12-19T20:40:19.579Z,78.03
2022-12-19T20:45:22.542Z,77.65
2022-12-19T20:50:24.518Z,78.43
2022-12-19T20:55:26.125Z,83.47
2022-12-19T21:00:28.048Z,83.60
2022-12-19T21:05:29.927Z,76.57
2022-12-19T21:10:31.552Z,82.40
2022-12-19T21:15:34.217Z,81.10
2022-12-19T21:20:38.048Z,83.60
2022-12-19T21:25:39.668Z,80.25
2022-12-19T21:30:42.174Z,79.05
2022-12-19T21:35:43.794Z,87.28
2022-12-19T21:40:45.731Z,88.32
2022-12-19T21:45:47.333Z,78.32
2022-12-19T21:50:55.804Z,83.35
2022-12-19T21:56:16.299Z,88.22
2022-12-19T22:01:18.344Z,87.45
2022-12-19T22:06:28.106Z,81.00
2022-12-19T22:11:31.076Z,81.60
2022-12-19T22:16:33.985Z,85.88
2022-12-19T22:21:35.670Z,82.03
2022-12-19T22:26:37.979Z,88.70
2022-12-19T22:31:39.699Z,83.72
2022-12-19T22:36:42.944Z,87.47
2022-12-19T22:41:45.103Z,90.35
2022-12-19T22:46:47.142Z,95.40
2022-12-19T22:51:49.279Z,88.57
2022-12-19T22:56:53.698Z,87.68
2022-12-19T23:01:56.026Z,93.75
2022-12-19T23:06:57.755Z,92.68
2022-12-19T23:11:59.564Z,93.82
2022-12-19T23:17:01.511Z,100.03
2022-12-19T23:22:03.405Z,93.18
2022-12-19T23:27:05.150Z,97.05
2022-12-19T23:32:06.848Z,99.45
2022-12-19T23:37:11.152Z,101.78
2022-12-19T23:42:13.765Z,97.10
2022-12-19T23:47:15.605Z,98.35
2022-12-19T23:52:17.227Z,103.93
2022-12-19T23:57:19.134Z,102.85
